Search for airport 
image banner adimage banner adimage banner ad
image banner ad

KFSW - Fort Madison Muni

Located in Fort Madison, United States

ICAO - FSW, IATA - FMS

Data provided by Airmate  

General information

Coordinates: N40°39'33" W91°19'40"
Elevation is 722 feet MSL.
Magnetic variation is -00° East
View others Airports in Iowa

Operational data

Special qualification required
Current time UTC:
Current local time:
Weather
METAR: KFSW 181835Z AUTO 27004KT 10SM CLR 29/24 A2984 RMK AO2
View NOTAMs / SUP AIP / TFR affecting this airport [VIEW]
Communications frequencies: [VIEW]

Runways:

RWY identifierQFULength (ft)Width (ft)SurfaceLDA (ft)
17167°400075CONC
35347°400075CONC

Airport contact information

Address: Fort Madison United States

Satellite view of KFSW